Time;durP1;ratioP1;P1;durP2;ratioP2;P2;SDS_P1;SDS_P2;PMS_P1;PMS_P2;Temp;Humidity;BMP_temperature;BMP_pressure;BME280_temperature;BME280_humidity;BME280_pressure;Samples;Min_cycle;Max_cycle;Signal;HPM_P1;HPM_P2
2021/12/06 00:01:52;;;;;;;33.53;25.95;;;7.90;99.90;;;8.05;81.36;101142.66;5113077;28;20374;-81
2021/12/06 00:04:25;;;;;;;35.83;27.45;;;7.90;99.90;;;8.06;81.48;101146.16;5094804;28;20489;-82
2021/12/06 00:06:57;;;;;;;38.10;27.90;;;7.90;99.90;;;8.05;81.71;101142.66;5113039;28;20564;-81
2021/12/06 00:09:30;;;;;;;39.22;26.70;;;7.90;99.90;;;8.05;81.38;101142.66;5113061;28;20047;-81
2021/12/06 00:12:02;;;;;;;37.33;27.10;;;7.90;99.90;;;8.02;81.28;101139.09;5112771;28;20052;-81
2021/12/06 00:14:34;;;;;;;37.33;27.23;;;7.90;99.90;;;8.05;81.18;101134.75;5112951;28;20126;-81
2021/12/06 00:17:10;;;;;;;37.65;28.17;;;7.90;99.90;;;8.06;81.19;101135.63;5113116;28;20049;-81
2021/12/06 00:19:40;;;;;;;38.17;28.48;;;7.90;99.90;;;8.07;81.19;101154.09;5113545;28;20097;-81
2021/12/06 00:22:13;;;;;;;35.75;27.35;;;7.90;99.90;;;8.06;81.26;101149.69;5112707;28;20039;-81
2021/12/06 00:24:43;;;;;;;41.55;29.50;;;7.90;99.90;;;8.07;81.38;101155.84;5094686;28;20500;-81
2021/12/06 00:27:12;;;;;;;40.60;29.95;;;8.00;99.90;;;8.12;81.53;101155.03;5112939;28;20111;-81
2021/12/06 00:29:40;;;;;;;41.03;29.63;;;8.00;99.90;;;8.12;81.16;101156.78;5113094;28;20063;-81
2021/12/06 00:32:09;;;;;;;40.13;28.65;;;7.90;99.90;;;8.19;81.28;101167.38;5094602;28;20047;-81
2021/12/06 00:34:39;;;;;;;40.20;29.27;;;8.00;99.90;;;8.19;81.20;101164.75;5112958;28;20085;-82
2021/12/06 00:37:20;;;;;;;40.00;29.48;;;8.10;99.90;;;8.17;81.33;101169.13;5112808;28;20127;-81
2021/12/06 00:39:53;;;;;;;;;;;8.00;99.90;;;8.15;81.19;101181.38;5113396;28;20043;-82
2021/12/06 00:42:23;;;;;;;45.22;30.40;;;8.10;99.90;;;8.14;81.31;101179.66;5112816;28;19919;-81
2021/12/06 00:44:52;;;;;;;42.28;30.33;;;8.00;99.90;;;8.12;81.48;101178.75;5113051;28;20051;-81
2021/12/06 00:47:22;;;;;;;42.42;30.77;;;8.00;99.90;;;8.28;81.57;101184.19;5094200;28;20092;-80
2021/12/06 00:49:50;;;;;;;42.95;31.30;;;8.10;99.90;;;8.27;81.38;101196.47;5112678;28;20077;-83
2021/12/06 00:52:20;;;;;;;39.33;29.45;;;8.10;99.90;;;8.26;81.50;101200.00;5112780;28;20048;-82
2021/12/06 00:54:50;;;;;;;44.67;31.40;;;8.10;99.90;;;8.27;81.72;101200.84;5112966;28;20040;-83
2021/12/06 00:57:20;;;;;;;41.20;30.73;;;8.10;99.90;;;8.32;81.47;101199.16;5113164;28;20047;-83
2021/12/06 00:59:50;;;;;;;40.60;30.70;;;8.10;99.90;;;8.27;81.36;101193.84;5094480;28;20044;-83
2021/12/06 01:02:19;;;;;;;43.38;31.70;;;8.10;99.90;;;8.32;81.45;101207.06;5112113;28;20047;-82
2021/12/06 01:04:51;;;;;;;43.42;31.92;;;8.10;99.90;;;8.32;81.78;101204.44;5112310;28;20047;-82
2021/12/06 01:07:20;;;;;;;40.75;30.40;;;8.10;99.90;;;8.35;81.35;101215.00;5112721;28;20039;-83
2021/12/06 01:09:50;;;;;;;39.58;30.02;;;8.10;99.90;;;8.36;81.45;101216.78;5112191;28;20055;-81
2021/12/06 01:12:18;;;;;;;44.83;31.10;;;8.10;99.90;;;8.42;80.94;101220.34;5094332;28;20126;-82
2021/12/06 01:14:47;;;;;;;43.85;32.17;;;8.20;99.90;;;8.40;80.95;101224.72;5093815;28;20138;-81
2021/12/06 01:17:15;;;;;;;42.22;31.05;;;8.20;99.90;;;8.45;80.99;101233.56;5094077;28;20039;-82
2021/12/06 01:19:44;;;;;;;41.85;30.73;;;8.30;99.90;;;8.49;80.75;101230.09;5112752;28;20508;-81
2021/12/06 01:22:22;;;;;;;45.25;31.08;;;8.30;99.90;;;8.53;80.46;101223.09;5112416;28;20043;-81
2021/12/06 01:24:57;;;;;;;45.33;32.55;;;8.30;99.90;;;8.47;80.76;101231.84;5112438;28;20050;-81
2021/12/06 01:27:48;;;;;;;44.03;31.75;;;8.30;99.90;;;8.45;80.45;101233.56;5112435;28;20044;-81
2021/12/06 01:41:36;;;;;;;48.15;32.35;;;8.20;99.90;;;8.40;80.83;101253.69;5093866;28;20044;-81
2021/12/06 01:44:10;;;;;;;47.28;31.77;;;8.20;99.90;;;8.42;80.66;101244.06;5093831;28;20397;-82
2021/12/06 01:46:48;;;;;;;43.55;31.88;;;8.30;99.90;;;8.35;80.78;101247.50;5112481;28;20446;-82
2021/12/06 01:49:20;;;;;;;47.80;33.88;;;8.20;99.90;;;8.36;80.90;101243.13;5093766;28;20129;-82
2021/12/06 01:51:52;;;;;;;48.00;33.05;;;8.20;99.90;;;8.35;80.83;101244.88;5093913;28;20542;-82
2021/12/06 01:54:22;;;;;;;47.85;31.58;;;8.20;99.90;;;8.18;80.87;101218.31;5093421;28;20400;-81
2021/12/06 01:56:54;;;;;;;47.25;33.90;;;8.10;99.90;;;8.38;81.06;101237.00;5112114;28;20057;-80
2021/12/06 01:59:25;;;;;;;45.50;32.33;;;8.20;99.90;;;8.34;81.05;101247.50;5093720;28;20051;-81
2021/12/06 02:01:56;;;;;;;46.30;32.45;;;8.20;99.90;;;8.33;81.18;101240.44;5093836;28;20390;-81
2021/12/06 02:04:25;;;;;;;46.22;33.53;;;8.20;99.90;;;8.31;80.76;101242.19;5093561;28;20087;-81
2021/12/06 02:06:54;;;;;;;49.85;33.40;;;8.10;99.90;;;8.25;81.30;101237.72;5097339;28;20054;-81
2021/12/06 02:09:26;;;;;;;49.17;32.85;;;8.10;99.90;;;8.22;81.10;101235.06;5097329;28;20058;-81
2021/12/06 02:12:04;;;;;;;49.90;33.00;;;8.10;99.90;;;8.23;81.48;101232.41;5097394;28;20124;-82
2021/12/06 02:14:41;;;;;;;48.22;35.70;;;8.10;99.90;;;8.19;81.40;101241.16;5097462;28;20457;-81
2021/12/06 02:17:21;;;;;;;46.70;33.60;;;8.00;99.90;;;8.20;81.01;101235.03;5097193;28;20477;-82
2021/12/06 02:19:55;;;;;;;53.20;35.40;;;8.00;99.90;;;8.15;81.32;101235.81;5097334;28;20069;-82
2021/12/06 02:22:29;;;;;;;50.70;34.88;;;8.00;99.90;;;8.17;81.15;101229.72;5115503;28;20094;-81
2021/12/06 02:24:59;;;;;;;48.45;34.15;;;8.00;99.90;;;8.19;80.88;101232.34;5115656;28;20100;-81
2021/12/06 02:27:31;;;;;;;50.97;34.45;;;8.00;99.90;;;8.07;81.04;101219.94;5097008;28;20405;-81
2021/12/06 02:30:04;;;;;;;51.40;34.63;;;8.00;99.90;;;8.09;80.91;101228.75;5096970;28;20076;-82
2021/12/06 02:32:34;;;;;;;45.78;33.58;;;8.00;99.90;;;8.07;81.16;101227.84;5115276;28;20063;-82
2021/12/06 02:35:07;;;;;;;47.95;34.80;;;8.00;99.90;;;8.11;80.51;101232.28;5097027;28;20047;-82
2021/12/06 02:37:37;;;;;;;48.80;35.25;;;8.00;99.90;;;8.09;80.55;101231.38;5115299;28;20101;-81
2021/12/06 02:40:12;;;;;;;49.15;34.33;;;7.90;99.90;;;7.98;80.76;101227.75;5097182;28;20134;-82
2021/12/06 02:42:42;;;;;;;52.13;35.28;;;7.90;99.90;;;7.81;81.08;101224.03;5115104;28;20039;-82
2021/12/06 02:45:13;;;;;;;54.75;36.72;;;7.70;99.90;;;7.65;81.14;101208.00;5096719;28;20048;-83
2021/12/06 02:47:42;;;;;;;55.40;36.53;;;7.70;99.90;;;7.82;81.14;101227.56;5115138;28;20400;-83
2021/12/06 02:50:13;;;;;;;52.92;35.90;;;7.70;99.90;;;7.76;81.33;101230.97;5096701;28;20058;-82
2021/12/06 02:52:43;;;;;;;51.78;36.40;;;7.70;99.90;;;7.78;81.44;101226.59;5096316;28;20081;-81
2021/12/06 02:55:28;;;;;;;51.22;36.53;;;7.70;99.90;;;7.82;81.54;101238.09;5096471;28;20082;-82
2021/12/06 02:58:02;;;;;;;48.13;34.95;;;7.70;99.90;;;7.79;81.31;101238.94;5096525;28;20053;-81
2021/12/06 03:00:31;;;;;;;51.53;35.88;;;7.70;99.90;;;7.77;81.15;101230.13;5096634;28;20493;-81
2021/12/06 03:03:00;;;;;;;50.42;35.03;;;7.70;99.90;;;7.76;81.18;101238.00;5096049;28;20181;-82
2021/12/06 03:05:29;;;;;;;53.17;35.38;;;7.70;99.90;;;7.75;81.31;101241.50;5096121;28;20500;-81
2021/12/06 03:08:00;;;;;;;51.72;36.85;;;7.60;99.90;;;7.74;81.40;101247.63;5096014;28;20122;-81
2021/12/06 03:10:30;;;;;;;50.20;35.08;;;7.60;99.90;;;7.73;80.85;101252.00;5096586;28;20047;-81
2021/12/06 03:12:59;;;;;;;49.83;35.72;;;7.60;99.90;;;7.72;80.98;101242.34;5096105;28;20047;-81
2021/12/06 03:15:28;;;;;;;51.10;35.15;;;7.50;99.90;;;7.73;80.90;101248.47;5095893;28;20134;-81
2021/12/06 03:17:57;;;;;;;48.70;35.58;;;7.50;99.90;;;7.69;81.04;101242.28;5096449;28;20055;-82
2021/12/06 03:20:26;;;;;;;48.20;33.70;;;7.50;99.90;;;7.51;81.19;101247.31;5096025;28;20043;-82
2021/12/06 03:22:55;;;;;;;50.70;36.60;;;7.40;99.90;;;7.60;81.25;101250.09;5095984;28;20130;-81
2021/12/06 03:25:25;;;;;;;53.95;35.55;;;7.40;99.90;;;7.59;81.35;101248.28;5095999;28;20048;-80
2021/12/06 03:27:54;;;;;;;50.72;36.45;;;7.40;99.90;;;7.16;81.54;101180.19;5114306;28;20412;-80
2021/12/06 03:30:22;;;;;;;51.42;36.40;;;7.40;99.90;;;7.59;81.41;101247.44;5095865;28;20073;-81
2021/12/06 03:32:52;;;;;;;50.53;35.47;;;7.40;99.90;;;7.62;81.54;101244.84;5095863;28;20134;-81
2021/12/06 03:35:21;;;;;;;52.72;35.22;;;7.40;99.90;;;6.99;81.54;101155.34;5095851;28;20651;-81
2021/12/06 03:37:50;;;;;;;53.25;36.92;;;7.40;99.90;;;7.55;81.51;101243.00;5096009;28;20051;-81
2021/12/06 03:40:18;;;;;;;55.70;36.40;;;7.40;99.90;;;7.57;81.71;101255.28;5114335;28;20092;-82
2021/12/06 03:42:48;;;;;;;53.03;36.65;;;7.40;99.90;;;7.59;81.80;101252.69;5095757;28;20058;-82
2021/12/06 03:45:18;;;;;;;;;;;7.40;99.90;;;7.57;81.69;101254.44;5096547;28;20066;-80
2021/12/06 03:47:47;;;;;;;52.38;35.15;;;7.50;99.90;;;7.55;81.74;101257.00;5095961;28;20349;-82
2021/12/06 03:50:16;;;;;;;53.13;36.80;;;7.40;99.90;;;7.53;81.55;101269.25;5095429;28;20079;-80
2021/12/06 03:52:45;;;;;;;52.97;35.80;;;7.40;99.90;;;7.51;81.61;101268.34;5095202;28;20368;-82
2021/12/06 03:55:14;;;;;;;52.97;36.00;;;7.30;99.90;;;7.47;81.52;101274.44;5095290;28;20067;-82
2021/12/06 03:57:43;;;;;;;50.20;35.53;;;7.30;99.90;;;7.44;81.74;101269.16;5095296;28;20104;-81
2021/12/06 04:00:17;;;;;;;52.63;36.65;;;7.30;99.90;;;7.41;81.83;101262.97;5095340;28;20055;-81
2021/12/06 04:02:53;;;;;;;49.28;34.95;;;7.20;99.90;;;7.41;81.90;101268.22;5091714;28;20060;-81
2021/12/06 04:05:23;;;;;;;54.00;37.28;;;7.20;99.90;;;7.43;81.85;101263.88;5093305;28;20085;-81
2021/12/06 04:07:52;;;;;;;55.57;37.70;;;7.20;99.90;;;7.48;82.08;101273.59;5091905;28;20558;-81
2021/12/06 04:10:25;;;;;;;54.83;36.65;;;7.30;99.90;;;7.50;81.69;101271.88;5092022;28;20082;-81
2021/12/06 04:12:57;;;;;;;58.15;37.35;;;7.30;99.90;;;7.49;81.64;101277.97;5091656;28;20051;-80
2021/12/06 04:15:29;;;;;;;50.47;33.95;;;7.30;99.90;;;7.46;81.78;101269.16;5091579;28;20490;-81
2021/12/06 04:17:59;;;;;;;55.67;35.90;;;7.30;99.90;;;7.50;81.83;101281.50;5091610;28;20109;-81
2021/12/06 04:20:30;;;;;;;57.67;38.20;;;7.30;99.90;;;7.07;81.57;101206.31;5091559;28;20146;-81
2021/12/06 04:22:59;;;;;;;56.10;36.30;;;7.30;99.90;;;7.49;81.64;101283.25;5092635;28;20095;-81
2021/12/06 04:25:28;;;;;;;48.53;34.03;;;7.30;99.90;;;7.41;82.01;101281.38;5091367;28;20094;-80
2021/12/06 04:28:05;;;;;;;45.47;32.40;;;7.20;99.90;;;7.39;81.79;101286.63;5090485;28;20052;-81
2021/12/06 04:30:38;;;;;;;50.47;33.92;;;7.20;99.90;;;7.24;81.56;101266.22;5091301;28;20382;-82
2021/12/06 04:33:08;;;;;;;53.58;34.80;;;7.10;99.90;;;7.37;81.62;101295.34;5091320;28;20157;-82
2021/12/06 04:35:39;;;;;;;51.80;35.45;;;7.10;99.90;;;7.30;81.56;101295.25;5092558;28;20090;-81
2021/12/06 04:38:11;;;;;;;51.10;33.30;;;7.10;99.90;;;7.32;81.89;101284.75;5091215;28;20143;-81
2021/12/06 04:40:40;;;;;;;53.47;34.97;;;7.10;99.90;;;7.35;81.67;101279.53;5092307;28;20490;-82
2021/12/06 04:43:09;;;;;;;39.22;26.23;;;7.00;99.90;;;7.15;81.40;101252.03;5091193;28;20093;-82
2021/12/06 04:45:40;;;;;;;45.60;31.45;;;7.10;99.90;;;7.07;80.95;101253.66;5091061;28;20052;-81
2021/12/06 04:48:10;;;;;;;42.05;31.00;;;6.90;99.90;;;7.00;80.68;101262.31;5091065;28;20085;-82
2021/12/06 04:50:41;;;;;;;36.00;26.88;;;6.80;99.90;;;7.01;80.77;101254.44;5091064;28;20052;-82
2021/12/06 04:53:15;;;;;;;31.70;25.45;;;6.80;99.90;;;6.90;80.65;101257.75;5091043;28;20058;-82
2021/12/06 04:55:50;;;;;;;39.78;29.42;;;6.70;99.90;;;6.88;81.27;101267.38;5092274;28;20101;-81
2021/12/06 04:58:22;;;;;;;49.92;34.65;;;6.60;99.90;;;6.95;81.77;101258.75;5092263;28;20048;-82
2021/12/06 05:01:01;;;;;;;51.40;35.92;;;6.70;99.90;;;6.96;82.08;101265.75;5092130;28;20036;-82
2021/12/06 05:03:33;;;;;;;33.03;24.80;;;6.70;99.90;;;6.93;81.47;101266.59;5090648;28;20481;-81
2021/12/06 05:06:10;;;;;;;48.17;32.38;;;6.70;99.90;;;6.96;81.43;101266.66;5090850;28;20079;-79
2021/12/06 05:08:43;;;;;;;41.03;30.25;;;6.70;99.90;;;6.96;81.47;101269.28;5092052;28;20506;-81
2021/12/06 05:11:13;;;;;;;40.05;29.85;;;6.70;99.90;;;6.91;80.97;101273.56;5090990;28;20044;-81
2021/12/06 05:13:47;;;;;;;39.05;27.63;;;6.70;99.90;;;6.92;81.10;101279.72;5090701;28;20802;-77
2021/12/06 05:16:19;;;;;;;33.42;24.10;;;6.70;99.90;;;6.69;80.97;101247.78;5090423;28;20485;-76
2021/12/06 05:18:48;;;;;;;50.42;33.97;;;6.70;99.90;;;6.55;81.72;101280.81;5090492;28;20098;-75
2021/12/06 05:21:17;;;;;;;23.48;19.35;;;6.40;99.90;;;6.41;81.13;101279.66;5090384;28;20044;-75
2021/12/06 05:23:47;;;;;;;23.98;19.45;;;6.20;99.90;;;6.35;80.86;101280.44;5090387;28;20378;-76
2021/12/06 05:26:17;;;;;;;51.38;33.67;;;6.10;99.90;;;6.36;81.88;101266.47;5090395;28;20090;-79
2021/12/06 05:28:48;;;;;;;61.40;36.90;;;6.10;99.90;;;6.19;84.56;101275.72;5090274;28;20055;-76
2021/12/06 05:31:20;;;;;;;54.35;37.17;;;6.00;99.90;;;6.07;85.73;101279.88;5089972;28;20429;-75
2021/12/06 05:33:53;;;;;;;58.13;36.53;;;5.80;99.90;;;6.04;85.88;101278.06;5090421;28;20052;-76
2021/12/06 05:36:23;;;;;;;59.37;37.90;;;5.90;99.90;;;5.63;87.29;101284.16;5091598;28;20032;-76
2021/12/06 05:38:53;;;;;;;69.73;37.30;;;5.50;99.90;;;5.11;89.38;101286.44;5092294;28;20459;-76
2021/12/06 05:41:22;;;;;;;67.40;39.92;;;5.20;99.90;;;4.80;91.22;101276.03;5095388;28;20040;-76
2021/12/06 05:43:50;;;;;;;62.93;38.77;;;4.80;99.90;;;4.93;91.31;101216.13;5095245;28;20040;-76
2021/12/06 05:46:20;;;;;;;73.03;41.27;;;5.10;99.90;;;5.47;91.09;101277.69;5095217;28;20095;-76
2021/12/06 05:48:48;;;;;;;71.93;42.08;;;5.30;99.90;;;5.71;90.68;101284.34;5095406;28;20101;-76
2021/12/06 05:51:17;;;;;;;78.80;42.33;;;5.50;99.90;;;5.77;89.70;101280.06;5095606;28;20044;-76
2021/12/06 05:53:45;;;;;;;88.73;43.33;;;5.70;99.90;;;5.89;89.66;101276.84;5095205;28;20333;-76
2021/12/06 05:56:14;;;;;;;92.63;43.90;;;5.80;99.90;;;5.78;89.60;101279.25;5094852;28;20123;-77
2021/12/06 05:58:42;;;;;;;92.17;42.07;;;5.80;99.90;;;5.72;89.39;101280.84;5095011;28;20056;-75
2021/12/06 06:01:11;;;;;;;179.27;46.30;;;5.70;99.90;;;5.56;89.50;101273.47;5094915;28;20506;-74
2021/12/06 06:03:46;;;;;;;376.60;51.47;;;5.60;99.90;;;4.84;91.78;101283.13;5109154;28;20051;-77
2021/12/06 06:06:14;;;;;;;133.88;43.08;;;5.00;99.90;;;4.86;93.21;101277.06;5097195;28;20476;-76
2021/12/06 06:08:43;;;;;;;210.37;46.33;;;4.80;99.90;;;4.91;93.38;101282.44;5115286;28;20130;-75
2021/12/06 06:11:15;;;;;;;290.23;47.67;;;4.80;99.90;;;4.80;93.86;101294.38;5115261;28;20101;-76
2021/12/06 06:13:43;;;;;;;229.50;45.27;;;4.70;99.90;;;4.90;94.13;101291.13;5115264;28;20040;-76
2021/12/06 06:16:17;;;;;;;236.50;44.33;;;4.70;99.90;;;4.18;94.33;101180.16;5115379;28;20043;-76
2021/12/06 06:18:50;;;;;;;395.97;48.10;;;4.80;99.90;;;4.49;94.00;101306.66;5115220;28;20527;-76
2021/12/06 06:21:20;;;;;;;82.20;43.13;;;4.50;99.90;;;4.65;96.01;101309.69;5097129;28;20363;-76
2021/12/06 06:23:48;;;;;;;85.35;43.35;;;4.50;99.90;;;4.95;95.43;101308.78;5115061;28;20481;-76
2021/12/06 06:26:16;;;;;;;74.27;44.50;;;4.80;99.90;;;5.04;95.06;101298.50;5115016;28;20042;-76
2021/12/06 06:28:45;;;;;;;71.70;40.57;;;5.00;99.90;;;5.23;93.94;101315.56;5115055;28;20054;-76
2021/12/06 06:31:13;;;;;;;68.40;37.53;;;5.10;99.90;;;5.31;92.88;101322.75;5115060;28;20134;-76
2021/12/06 06:33:42;;;;;;;66.53;38.80;;;5.20;99.90;;;5.45;92.64;101312.59;5097090;28;20222;-77
2021/12/06 06:36:12;;;;;;;69.93;40.90;;;5.30;99.90;;;5.42;91.97;101295.03;5114917;28;20067;-76
2021/12/06 06:38:41;;;;;;;72.38;42.65;;;5.40;99.90;;;5.63;91.52;101313.03;5114760;28;20054;-76
2021/12/06 06:41:10;;;;;;;68.30;39.97;;;5.50;99.90;;;5.70;90.99;101317.56;5114533;28;20435;-77
2021/12/06 06:43:38;;;;;;;64.50;39.50;;;5.60;99.90;;;5.77;90.78;101323.84;5114548;28;20553;-77
2021/12/06 06:46:07;;;;;;;84.97;42.47;;;5.60;99.90;;;5.82;90.54;101328.31;5114401;28;20074;-77
2021/12/06 06:48:36;;;;;;;169.07;42.70;;;5.70;99.90;;;5.84;90.05;101325.75;5114466;28;20424;-77
2021/12/06 06:51:05;;;;;;;111.37;45.90;;;5.70;99.90;;;5.71;90.01;101308.81;5113891;28;20122;-77
2021/12/06 06:53:35;;;;;;;86.07;46.10;;;5.70;99.90;;;5.85;90.09;101323.16;5096167;28;20047;-77
2021/12/06 06:56:04;;;;;;;110.40;47.78;;;5.70;99.90;;;5.90;90.14;101316.28;5114394;28;20514;-76
2021/12/06 06:58:32;;;;;;;88.03;47.10;;;5.80;99.90;;;5.99;89.99;101319.09;5095755;28;20108;-77
2021/12/06 07:01:01;;;;;;;85.40;45.67;;;5.80;99.90;;;6.01;89.88;101309.53;5095801;28;20126;-77
2021/12/06 07:03:31;;;;;;;81.32;45.28;;;5.90;99.90;;;5.96;89.82;101316.38;5114558;28;20055;-77
2021/12/06 07:06:03;;;;;;;85.70;44.37;;;5.90;99.90;;;5.95;89.72;101308.50;5114228;28;20119;-77
2021/12/06 07:08:32;;;;;;;114.55;43.35;;;5.90;99.90;;;5.90;90.10;101311.03;5114057;28;20055;-74
2021/12/06 07:11:02;;;;;;;106.03;42.83;;;5.90;99.90;;;5.68;89.80;101289.50;5114259;28;20180;-74
2021/12/06 07:13:36;;;;;;;157.48;45.17;;;5.70;99.90;;;5.70;90.73;101290.41;5113933;28;20142;-77
2021/12/06 07:16:06;;;;;;;86.73;43.70;;;5.70;99.90;;;5.81;91.05;101300.28;5113835;28;20105;-78
2021/12/06 07:18:36;;;;;;;98.93;42.90;;;5.70;99.90;;;5.80;91.13;101288.03;5114006;28;20040;-78
2021/12/06 07:21:06;;;;;;;158.43;45.07;;;5.80;99.90;;;5.72;90.99;101293.97;5113885;28;20077;-79
2021/12/06 07:23:38;;;;;;;169.70;46.80;;;5.80;99.90;;;5.72;91.27;101283.47;5114136;28;20039;-80
2021/12/06 07:26:09;;;;;;;100.83;46.43;;;5.70;99.90;;;5.64;91.91;101279.78;5114419;28;20051;-74
2021/12/06 07:28:38;;;;;;;94.27;48.50;;;5.60;99.90;;;5.57;92.62;101278.78;5095456;28;20149;-75
2021/12/06 07:31:08;;;;;;;174.70;52.60;;;5.60;99.90;;;5.34;92.94;101280.00;5113949;28;20452;-74
2021/12/06 07:33:37;;;;;;;172.45;49.88;;;5.40;99.90;;;5.10;94.42;101280.31;5114084;28;20089;-76
2021/12/06 07:36:06;;;;;;;174.17;51.57;;;5.20;99.90;;;5.21;94.93;101297.16;5113493;28;20112;-75
2021/12/06 07:38:37;;;;;;;155.20;50.57;;;5.20;99.90;;;5.16;94.89;101288.31;5113548;28;20412;-74
2021/12/06 07:41:11;;;;;;;155.30;53.53;;;5.20;99.90;;;5.12;95.37;101296.06;5113847;28;20522;-77
2021/12/06 07:43:40;;;;;;;144.10;51.60;;;5.10;99.90;;;5.06;95.84;101294.19;5113870;28;20370;-77
2021/12/06 07:46:10;;;;;;;193.93;56.53;;;5.10;99.90;;;5.09;96.30;101290.75;5113588;28;20501;-77
2021/12/06 07:48:40;;;;;;;164.38;52.95;;;5.10;99.90;;;5.09;96.08;101291.63;5113299;28;20470;-77
2021/12/06 07:51:09;;;;;;;143.15;53.72;;;5.20;99.90;;;5.12;96.70;101288.19;5113826;28;20047;-76
2021/12/06 07:53:40;;;;;;;113.60;51.93;;;5.20;99.90;;;5.24;96.53;101288.50;5113322;28;20501;-77
2021/12/06 07:56:11;;;;;;;196.15;54.90;;;5.20;99.90;;;5.27;96.13;101285.94;5113881;28;20070;-77
2021/12/06 07:58:40;;;;;;;115.53;52.33;;;5.30;99.90;;;5.24;96.28;101257.94;5113031;28;20075;-78
2021/12/06 08:01:09;;;;;;;140.17;54.47;;;5.40;99.90;;;5.38;96.10;101292.34;5113032;28;20126;-77
2021/12/06 08:03:41;;;;;;;103.37;52.53;;;5.40;99.90;;;5.49;96.25;101293.47;5094128;28;20051;-76
2021/12/06 08:06:10;;;;;;;128.80;52.80;;;5.40;99.90;;;5.53;96.15;101296.16;5094774;28;20485;-79
2021/12/06 08:08:42;;;;;;;96.78;52.03;;;5.50;99.90;;;5.60;95.90;101307.69;5094468;28;20443;-80
2021/12/06 08:11:14;;;;;;;113.67;55.87;;;5.50;99.90;;;5.68;95.86;101302.63;5112723;28;20067;-80
2021/12/06 08:13:46;;;;;;;129.57;58.53;;;5.60;99.90;;;5.83;95.59;101311.75;5112921;28;20040;-80
2021/12/06 08:16:18;;;;;;;128.90;59.40;;;5.80;99.90;;;5.93;95.29;101332.09;5113394;28;20051;-77
2021/12/06 08:18:47;;;;;;;127.47;60.00;;;5.80;99.90;;;6.08;95.18;101331.53;5113043;28;20119;-79
2021/12/06 08:21:19;;;;;;;129.27;59.40;;;6.00;99.90;;;6.14;94.38;101326.41;5112647;28;20071;-77
2021/12/06 08:23:50;;;;;;;118.57;60.00;;;6.00;99.90;;;6.23;94.50;101324.84;5112739;28;20100;-82
2021/12/06 08:26:21;;;;;;;;;;;6.20;99.90;;;6.15;93.48;101320.31;5113022;28;20068;-82
2021/12/06 08:28:51;;;;;;;120.30;59.67;;;6.10;99.90;;;6.23;93.88;101322.22;5112971;28;19949;-79
2021/12/06 08:31:22;;;;;;;123.23;61.83;;;6.20;99.90;;;6.26;93.66;101321.41;5112968;28;20127;-80
2021/12/06 08:33:53;;;;;;;124.05;62.67;;;6.20;99.90;;;6.26;93.25;101310.91;5112614;28;20368;-80
2021/12/06 08:36:25;;;;;;;118.55;61.13;;;6.20;99.90;;;6.34;93.09;101312.84;5112538;28;20092;-79
2021/12/06 08:38:54;;;;;;;112.90;59.28;;;6.20;99.90;;;6.43;92.98;101311.25;5112748;28;20047;-81
2021/12/06 08:41:28;;;;;;;108.93;56.73;;;6.30;99.90;;;6.37;92.64;101317.25;5112364;28;20131;-80
2021/12/06 08:43:58;;;;;;;108.82;57.85;;;6.30;99.90;;;6.36;92.26;101313.75;5093990;28;20052;-81
2021/12/06 08:46:34;;;;;;;103.43;56.65;;;6.30;99.90;;;6.34;92.45;101317.19;5112764;28;20051;-81
2021/12/06 08:49:05;;;;;;;99.53;55.15;;;6.30;99.90;;;6.35;92.08;101305.81;5112556;28;20051;-80
2021/12/06 08:51:39;;;;;;;105.45;58.55;;;6.30;99.90;;;6.22;91.97;101302.06;5112394;28;20039;-80
2021/12/06 08:54:09;;;;;;;112.32;59.40;;;6.20;99.90;;;6.16;91.73;101309.81;5093818;28;20047;-81
2021/12/06 08:56:40;;;;;;;109.18;57.88;;;6.20;99.90;;;5.69;92.19;101283.41;5112165;28;20078;-79
2021/12/06 08:59:09;;;;;;;119.03;56.05;;;5.90;99.90;;;5.58;92.99;101293.66;5112429;28;20112;-80
2021/12/06 09:01:39;;;;;;;109.03;56.77;;;5.70;99.90;;;5.64;93.68;101285.91;5112547;28;20107;-81
2021/12/06 09:04:34;;;;;;;112.07;57.38;;;5.60;99.90;;;5.73;94.03;101299.22;5112478;28;20066;-80
2021/12/06 09:07:09;;;;;;;113.47;58.50;;;5.70;99.90;;;5.65;93.65;101297.31;5112000;28;20103;-79
2021/12/06 09:09:45;;;;;;;111.60;56.85;;;5.60;99.90;;;5.69;93.60;101286.03;5112483;28;20039;-80
2021/12/06 09:12:22;;;;;;;120.63;56.27;;;5.70;99.90;;;5.61;93.77;101280.63;5112286;28;20056;-79
2021/12/06 09:14:50;;;;;;;107.33;55.30;;;5.60;99.90;;;5.57;93.62;101283.13;5111745;28;20100;-79
2021/12/06 09:17:20;;;;;;;116.87;57.40;;;5.60;99.90;;;5.47;93.62;101261.06;5112056;28;20453;-80
2021/12/06 09:19:49;;;;;;;119.13;59.03;;;5.60;99.90;;;5.76;93.82;101283.56;5111927;28;20039;-79
2021/12/06 09:22:18;;;;;;;118.77;57.97;;;5.70;99.90;;;5.84;93.74;101289.00;5112192;28;20408;-80
2021/12/06 09:24:49;;;;;;;100.43;52.25;;;5.70;99.90;;;5.84;93.15;101300.41;5111861;28;20047;-78
2021/12/06 09:27:19;;;;;;;;;;;5.80;99.90;;;5.92;92.79;101305.81;5113134;28;20051;-79
2021/12/06 09:29:48;;;;;;;116.22;58.53;;;5.90;99.90;;;5.97;92.69;101305.06;5101510;28;20032;-79
2021/12/06 09:32:17;;;;;;;118.50;58.97;;;5.90;99.90;;;6.07;92.50;101314.00;5091580;28;20176;-79
2021/12/06 09:34:47;;;;;;;109.47;55.63;;;6.00;99.90;;;5.98;92.09;101288.44;5091723;28;20101;-79
2021/12/06 09:37:19;;;;;;;110.55;56.40;;;6.00;99.90;;;6.13;91.81;101336.03;5091871;28;20133;-79
2021/12/06 09:39:48;;;;;;;100.57;52.15;;;6.10;99.90;;;6.13;91.73;101303.63;5073674;28;20082;-78
2021/12/06 09:42:18;;;;;;;103.78;48.33;;;6.00;99.90;;;6.05;91.25;101306.09;5091584;28;20066;-79
2021/12/06 09:44:49;;;;;;;88.05;46.10;;;6.00;99.90;;;5.99;90.95;101326.97;5073508;28;20044;-80
2021/12/06 09:47:17;;;;;;;88.93;46.63;;;6.00;99.90;;;5.91;91.06;101306.66;5091435;28;20056;-79
2021/12/06 09:49:46;;;;;;;96.43;47.90;;;5.90;99.90;;;5.98;91.16;101306.81;5091617;28;20145;-79
2021/12/06 09:52:15;;;;;;;89.93;47.57;;;5.90;99.90;;;5.88;91.21;101301.34;5091489;28;20078;-79
2021/12/06 09:54:44;;;;;;;93.60;47.20;;;5.90;99.90;;;5.83;91.31;101298.63;5092059;28;20068;-78
2021/12/06 09:57:12;;;;;;;88.68;47.40;;;5.80;99.90;;;5.92;91.40;101303.19;5091574;28;20063;-79
2021/12/06 09:59:43;;;;;;;97.65;48.90;;;5.90;99.90;;;5.72;91.33;101294.84;5091338;28;20599;-79
2021/12/06 10:02:16;;;;;;;95.22;48.00;;;5.80;99.90;;;5.78;91.69;101307.22;5090895;28;20109;-78
2021/12/06 10:04:51;;;;;;;102.90;51.00;;;5.80;99.90;;;5.68;91.63;101300.88;5091141;28;20078;-79
2021/12/06 10:07:21;;;;;;;100.83;51.63;;;5.70;99.90;;;5.49;91.90;101280.34;5091096;28;20645;-79
2021/12/06 10:09:51;;;;;;;95.53;49.63;;;5.50;99.90;;;5.39;92.77;101283.59;5091044;28;20511;-79
2021/12/06 10:12:25;;;;;;;103.25;51.35;;;5.40;99.90;;;5.20;93.21;101274.44;5091419;28;20078;-79
2021/12/06 10:14:55;;;;;;;101.23;51.83;;;5.30;99.90;;;5.04;93.52;101198.00;5073357;28;20052;-80
2021/12/06 10:17:25;;;;;;;110.00;55.28;;;5.40;99.90;;;5.53;93.37;101272.56;5090937;28;20063;-79
2021/12/06 10:19:54;;;;;;;111.72;53.55;;;5.50;99.90;;;5.40;93.62;101253.91;5091038;28;20047;-80
2021/12/06 10:22:28;;;;;;;124.43;59.27;;;5.40;99.90;;;5.53;93.47;101250.69;5091064;28;20504;-80
2021/12/06 10:25:00;;;;;;;128.27;56.22;;;5.50;99.90;;;5.62;93.15;101255.25;5091281;28;20114;-80
2021/12/06 10:27:53;;;;;;;122.97;58.60;;;5.60;99.90;;;5.47;92.93;101240.97;5093569;28;20552;-80
2021/12/06 10:30:25;;;;;;;123.13;58.00;;;5.50;99.90;;;5.41;92.94;101227.72;5094686;28;20057;-79
2021/12/06 10:33:06;;;;;;;129.00;62.60;;;5.50;99.90;;;5.46;93.31;101225.16;5094818;28;20097;-80
2021/12/06 10:35:36;;;;;;;124.27;58.83;;;5.50;99.90;;;5.41;93.42;101214.59;5094417;28;20036;-80
2021/12/06 10:38:06;;;;;;;117.43;60.10;;;5.40;99.90;;;5.38;93.73;101218.91;5094863;28;20070;-80
2021/12/06 10:40:39;;;;;;;124.53;60.72;;;5.40;99.90;;;5.38;93.60;101211.91;5095064;28;20048;-80